sensor_id;sensor_type;location;lat;lon;timestamp;P1;durP1;ratioP1;P2;durP2;ratioP2
47161;SDS011;32921;53.256;8.198;2024-03-17T00:02:17;463.77;;;429.33;;
47161;SDS011;32921;53.256;8.198;2024-03-17T00:04:43;427.42;;;395.88;;
47161;SDS011;32921;53.256;8.198;2024-03-17T00:07:10;412.77;;;382.48;;
47161;SDS011;32921;53.256;8.198;2024-03-17T00:09:36;394.35;;;365.38;;
47161;SDS011;32921;53.256;8.198;2024-03-17T00:12:01;421.85;;;390.23;;
47161;SDS011;32921;53.256;8.198;2024-03-17T00:14:27;432.75;;;401.10;;
47161;SDS011;32921;53.256;8.198;2024-03-17T00:16:53;414.27;;;384.05;;
47161;SDS011;32921;53.256;8.198;2024-03-17T00:19:19;433.13;;;401.38;;
47161;SDS011;32921;53.256;8.198;2024-03-17T00:21:47;444.88;;;412.55;;
47161;SDS011;32921;53.256;8.198;2024-03-17T00:24:15;385.33;;;356.83;;
47161;SDS011;32921;53.256;8.198;2024-03-17T00:26:41;383.02;;;354.98;;
47161;SDS011;32921;53.256;8.198;2024-03-17T00:29:07;431.95;;;399.85;;
47161;SDS011;32921;53.256;8.198;2024-03-17T00:31:32;384.10;;;356.23;;
47161;SDS011;32921;53.256;8.198;2024-03-17T00:33:58;347.58;;;320.48;;
47161;SDS011;32921;53.256;8.198;2024-03-17T00:36:24;328.30;;;304.77;;
47161;SDS011;32921;53.256;8.198;2024-03-17T00:38:50;415.25;;;384.90;;
47161;SDS011;32921;53.256;8.198;2024-03-17T00:41:17;372.92;;;346.40;;
47161;SDS011;32921;53.256;8.198;2024-03-17T00:43:44;400.33;;;370.10;;
47161;SDS011;32921;53.256;8.198;2024-03-17T00:46:09;306.80;;;285.30;;
47161;SDS011;32921;53.256;8.198;2024-03-17T00:48:35;306.60;;;284.95;;
47161;SDS011;32921;53.256;8.198;2024-03-17T00:51:01;303.45;;;281.83;;
47161;SDS011;32921;53.256;8.198;2024-03-17T00:53:27;302.50;;;281.10;;
47161;SDS011;32921;53.256;8.198;2024-03-17T00:55:54;310.65;;;288.40;;
47161;SDS011;32921;53.256;8.198;2024-03-17T00:58:23;282.75;;;263.02;;
47161;SDS011;32921;53.256;8.198;2024-03-17T01:00:49;269.60;;;251.10;;
47161;SDS011;32921;53.256;8.198;2024-03-17T01:03:18;271.95;;;252.70;;
47161;SDS011;32921;53.256;8.198;2024-03-17T01:05:43;241.30;;;224.57;;
47161;SDS011;32921;53.256;8.198;2024-03-17T01:08:12;254.43;;;236.38;;
47161;SDS011;32921;53.256;8.198;2024-03-17T01:10:38;242.05;;;225.40;;
47161;SDS011;32921;53.256;8.198;2024-03-17T01:13:05;252.48;;;234.05;;
47161;SDS011;32921;53.256;8.198;2024-03-17T01:15:38;218.80;;;203.80;;
47161;SDS011;32921;53.256;8.198;2024-03-17T01:18:04;208.55;;;194.18;;
47161;SDS011;32921;53.256;8.198;2024-03-17T01:20:30;207.23;;;192.85;;
47161;SDS011;32921;53.256;8.198;2024-03-17T01:22:57;225.75;;;210.25;;
47161;SDS011;32921;53.256;8.198;2024-03-17T01:25:22;230.60;;;214.82;;
47161;SDS011;32921;53.256;8.198;2024-03-17T01:27:50;188.77;;;175.82;;
47161;SDS011;32921;53.256;8.198;2024-03-17T01:30:16;183.30;;;170.70;;
47161;SDS011;32921;53.256;8.198;2024-03-17T01:32:42;147.18;;;137.25;;
47161;SDS011;32921;53.256;8.198;2024-03-17T01:35:08;208.00;;;193.65;;
47161;SDS011;32921;53.256;8.198;2024-03-17T01:37:33;176.07;;;164.27;;
47161;SDS011;32921;53.256;8.198;2024-03-17T01:39:59;169.82;;;157.70;;
47161;SDS011;32921;53.256;8.198;2024-03-17T01:42:24;142.80;;;133.38;;
47161;SDS011;32921;53.256;8.198;2024-03-17T01:44:50;182.77;;;169.82;;
47161;SDS011;32921;53.256;8.198;2024-03-17T01:47:19;179.38;;;166.93;;
47161;SDS011;32921;53.256;8.198;2024-03-17T01:49:45;138.63;;;128.95;;
47161;SDS011;32921;53.256;8.198;2024-03-17T01:52:13;193.93;;;180.23;;
47161;SDS011;32921;53.256;8.198;2024-03-17T01:54:40;188.63;;;175.73;;
47161;SDS011;32921;53.256;8.198;2024-03-17T01:57:07;142.35;;;132.57;;
47161;SDS011;32921;53.256;8.198;2024-03-17T01:59:32;193.60;;;180.27;;
47161;SDS011;32921;53.256;8.198;2024-03-17T02:01:58;127.95;;;119.25;;
47161;SDS011;32921;53.256;8.198;2024-03-17T02:04:24;170.40;;;158.93;;
47161;SDS011;32921;53.256;8.198;2024-03-17T02:06:50;129.05;;;120.38;;
47161;SDS011;32921;53.256;8.198;2024-03-17T02:09:16;165.57;;;154.07;;
47161;SDS011;32921;53.256;8.198;2024-03-17T02:11:43;150.13;;;139.73;;
47161;SDS011;32921;53.256;8.198;2024-03-17T02:14:09;177.88;;;165.65;;
47161;SDS011;32921;53.256;8.198;2024-03-17T02:16:35;163.75;;;152.13;;
47161;SDS011;32921;53.256;8.198;2024-03-17T02:19:01;189.70;;;176.00;;
47161;SDS011;32921;53.256;8.198;2024-03-17T02:21:27;155.13;;;144.45;;
47161;SDS011;32921;53.256;8.198;2024-03-17T02:23:53;129.98;;;121.55;;
47161;SDS011;32921;53.256;8.198;2024-03-17T02:26:19;154.73;;;144.55;;
47161;SDS011;32921;53.256;8.198;2024-03-17T02:28:45;145.95;;;136.20;;
47161;SDS011;32921;53.256;8.198;2024-03-17T02:31:13;194.77;;;182.10;;
47161;SDS011;32921;53.256;8.198;2024-03-17T02:33:41;149.75;;;139.48;;
47161;SDS011;32921;53.256;8.198;2024-03-17T02:36:07;155.88;;;145.07;;
47161;SDS011;32921;53.256;8.198;2024-03-17T02:38:34;154.95;;;144.40;;
47161;SDS011;32921;53.256;8.198;2024-03-17T02:41:18;199.68;;;186.85;;
47161;SDS011;32921;53.256;8.198;2024-03-17T02:43:44;159.85;;;149.23;;
47161;SDS011;32921;53.256;8.198;2024-03-17T02:46:13;153.43;;;143.38;;
47161;SDS011;32921;53.256;8.198;2024-03-17T02:48:40;181.88;;;169.98;;
47161;SDS011;32921;53.256;8.198;2024-03-17T02:53:39;509.52;;;474.73;;
47161;SDS011;32921;53.256;8.198;2024-03-17T02:56:05;241.10;;;225.80;;
47161;SDS011;32921;53.256;8.198;2024-03-17T02:58:33;239.70;;;224.38;;
47161;SDS011;32921;53.256;8.198;2024-03-17T03:00:59;244.82;;;229.30;;
47161;SDS011;32921;53.256;8.198;2024-03-17T03:03:25;166.32;;;155.82;;
47161;SDS011;32921;53.256;8.198;2024-03-17T03:05:51;182.38;;;170.70;;
47161;SDS011;32921;53.256;8.198;2024-03-17T03:08:17;217.93;;;204.07;;
47161;SDS011;32921;53.256;8.198;2024-03-17T03:10:44;255.45;;;239.40;;
47161;SDS011;32921;53.256;8.198;2024-03-17T03:13:10;194.52;;;182.23;;
47161;SDS011;32921;53.256;8.198;2024-03-17T03:15:36;252.98;;;236.82;;
47161;SDS011;32921;53.256;8.198;2024-03-17T03:18:02;242.20;;;227.25;;
47161;SDS011;32921;53.256;8.198;2024-03-17T03:20:27;258.77;;;242.20;;
47161;SDS011;32921;53.256;8.198;2024-03-17T03:22:53;230.25;;;216.32;;
47161;SDS011;32921;53.256;8.198;2024-03-17T03:25:19;261.33;;;244.75;;
47161;SDS011;32921;53.256;8.198;2024-03-17T03:27:44;301.92;;;283.15;;
47161;SDS011;32921;53.256;8.198;2024-03-17T03:30:10;324.88;;;303.88;;
47161;SDS011;32921;53.256;8.198;2024-03-17T03:32:37;277.85;;;260.75;;
47161;SDS011;32921;53.256;8.198;2024-03-17T03:35:03;286.05;;;268.60;;
47161;SDS011;32921;53.256;8.198;2024-03-17T03:37:30;280.75;;;263.58;;
47161;SDS011;32921;53.256;8.198;2024-03-17T03:39:57;349.88;;;327.48;;
47161;SDS011;32921;53.256;8.198;2024-03-17T03:42:23;305.75;;;286.60;;
47161;SDS011;32921;53.256;8.198;2024-03-17T03:44:49;313.48;;;294.50;;
47161;SDS011;32921;53.256;8.198;2024-03-17T03:47:15;350.30;;;328.10;;
47161;SDS011;32921;53.256;8.198;2024-03-17T03:49:40;340.83;;;319.67;;
47161;SDS011;32921;53.256;8.198;2024-03-17T03:52:06;348.67;;;326.85;;
47161;SDS011;32921;53.256;8.198;2024-03-17T03:54:32;330.98;;;310.25;;
47161;SDS011;32921;53.256;8.198;2024-03-17T03:56:58;328.83;;;308.23;;
47161;SDS011;32921;53.256;8.198;2024-03-17T03:59:24;358.02;;;335.60;;
47161;SDS011;32921;53.256;8.198;2024-03-17T04:01:50;349.92;;;328.45;;
47161;SDS011;32921;53.256;8.198;2024-03-17T04:04:15;348.48;;;326.73;;
47161;SDS011;32921;53.256;8.198;2024-03-17T04:06:41;374.75;;;351.13;;
47161;SDS011;32921;53.256;8.198;2024-03-17T04:09:07;364.05;;;340.75;;
47161;SDS011;32921;53.256;8.198;2024-03-17T04:11:34;353.70;;;331.52;;
47161;SDS011;32921;53.256;8.198;2024-03-17T04:13:59;364.85;;;341.92;;
47161;SDS011;32921;53.256;8.198;2024-03-17T04:16:26;376.67;;;353.15;;
47161;SDS011;32921;53.256;8.198;2024-03-17T04:18:51;336.65;;;315.98;;
47161;SDS011;32921;53.256;8.198;2024-03-17T04:21:17;343.35;;;321.83;;
47161;SDS011;32921;53.256;8.198;2024-03-17T04:23:43;360.00;;;337.73;;
47161;SDS011;32921;53.256;8.198;2024-03-17T04:26:09;385.77;;;361.48;;
47161;SDS011;32921;53.256;8.198;2024-03-17T04:28:34;345.70;;;324.23;;
47161;SDS011;32921;53.256;8.198;2024-03-17T04:31:04;358.52;;;336.15;;
47161;SDS011;32921;53.256;8.198;2024-03-17T04:33:31;350.02;;;327.88;;
47161;SDS011;32921;53.256;8.198;2024-03-17T04:36:01;367.08;;;344.08;;
47161;SDS011;32921;53.256;8.198;2024-03-17T04:38:29;376.10;;;352.73;;
47161;SDS011;32921;53.256;8.198;2024-03-17T04:40:55;364.65;;;341.83;;
47161;SDS011;32921;53.256;8.198;2024-03-17T04:43:29;372.92;;;349.45;;
47161;SDS011;32921;53.256;8.198;2024-03-17T04:46:00;367.40;;;344.48;;
47161;SDS011;32921;53.256;8.198;2024-03-17T04:48:29;377.73;;;354.17;;
47161;SDS011;32921;53.256;8.198;2024-03-17T04:50:55;372.75;;;349.25;;
47161;SDS011;32921;53.256;8.198;2024-03-17T04:53:20;364.88;;;341.92;;
47161;SDS011;32921;53.256;8.198;2024-03-17T04:55:46;362.63;;;339.55;;
47161;SDS011;32921;53.256;8.198;2024-03-17T04:58:11;410.30;;;383.05;;
47161;SDS011;32921;53.256;8.198;2024-03-17T05:00:37;374.67;;;351.17;;
47161;SDS011;32921;53.256;8.198;2024-03-17T05:03:03;384.75;;;359.90;;
47161;SDS011;32921;53.256;8.198;2024-03-17T05:05:28;343.55;;;322.02;;
47161;SDS011;32921;53.256;8.198;2024-03-17T05:07:54;405.63;;;379.92;;
47161;SDS011;32921;53.256;8.198;2024-03-17T05:10:20;349.92;;;328.23;;
47161;SDS011;32921;53.256;8.198;2024-03-17T05:12:45;366.52;;;343.65;;
47161;SDS011;32921;53.256;8.198;2024-03-17T05:15:13;359.38;;;336.73;;
47161;SDS011;32921;53.256;8.198;2024-03-17T05:17:38;386.85;;;362.42;;
47161;SDS011;32921;53.256;8.198;2024-03-17T05:20:04;401.08;;;375.38;;
47161;SDS011;32921;53.256;8.198;2024-03-17T05:22:31;418.55;;;391.83;;
47161;SDS011;32921;53.256;8.198;2024-03-17T05:24:56;404.60;;;379.05;;
47161;SDS011;32921;53.256;8.198;2024-03-17T05:27:22;413.58;;;387.17;;
47161;SDS011;32921;53.256;8.198;2024-03-17T05:29:48;381.52;;;357.55;;
47161;SDS011;32921;53.256;8.198;2024-03-17T05:32:16;379.08;;;355.27;;
47161;SDS011;32921;53.256;8.198;2024-03-17T05:34:41;390.77;;;366.20;;
47161;SDS011;32921;53.256;8.198;2024-03-17T05:37:08;382.02;;;357.95;;
47161;SDS011;32921;53.256;8.198;2024-03-17T05:39:33;413.92;;;387.67;;
47161;SDS011;32921;53.256;8.198;2024-03-17T05:41:59;388.15;;;363.67;;
47161;SDS011;32921;53.256;8.198;2024-03-17T05:44:24;395.80;;;370.50;;
47161;SDS011;32921;53.256;8.198;2024-03-17T05:46:50;389.02;;;364.45;;
47161;SDS011;32921;53.256;8.198;2024-03-17T05:49:18;409.05;;;382.77;;
47161;SDS011;32921;53.256;8.198;2024-03-17T05:51:46;435.83;;;408.02;;
47161;SDS011;32921;53.256;8.198;2024-03-17T05:54:11;398.27;;;373.08;;
47161;SDS011;32921;53.256;8.198;2024-03-17T05:56:37;372.30;;;349.10;;
47161;SDS011;32921;53.256;8.198;2024-03-17T05:59:02;405.10;;;379.38;;
47161;SDS011;32921;53.256;8.198;2024-03-17T06:01:28;396.63;;;371.50;;
47161;SDS011;32921;53.256;8.198;2024-03-17T06:03:53;383.10;;;359.30;;
47161;SDS011;32921;53.256;8.198;2024-03-17T06:06:19;401.33;;;376.08;;
47161;SDS011;32921;53.256;8.198;2024-03-17T06:08:45;393.95;;;369.25;;
47161;SDS011;32921;53.256;8.198;2024-03-17T06:11:10;383.40;;;359.25;;
47161;SDS011;32921;53.256;8.198;2024-03-17T06:13:36;397.13;;;372.13;;
47161;SDS011;32921;53.256;8.198;2024-03-17T06:16:02;415.23;;;389.20;;
47161;SDS011;32921;53.256;8.198;2024-03-17T06:18:28;381.63;;;357.83;;
47161;SDS011;32921;53.256;8.198;2024-03-17T06:20:54;364.42;;;341.42;;
47161;SDS011;32921;53.256;8.198;2024-03-17T06:23:23;365.88;;;343.15;;
47161;SDS011;32921;53.256;8.198;2024-03-17T06:25:49;352.40;;;330.02;;
47161;SDS011;32921;53.256;8.198;2024-03-17T06:28:16;365.60;;;342.75;;
47161;SDS011;32921;53.256;8.198;2024-03-17T06:30:42;321.33;;;301.55;;
47161;SDS011;32921;53.256;8.198;2024-03-17T06:33:11;341.55;;;320.15;;
47161;SDS011;32921;53.256;8.198;2024-03-17T06:35:37;347.45;;;325.75;;
47161;SDS011;32921;53.256;8.198;2024-03-17T06:38:03;338.27;;;316.83;;
47161;SDS011;32921;53.256;8.198;2024-03-17T06:40:29;325.50;;;304.58;;
47161;SDS011;32921;53.256;8.198;2024-03-17T06:42:55;302.88;;;283.58;;
47161;SDS011;32921;53.256;8.198;2024-03-17T06:45:21;309.23;;;289.60;;
47161;SDS011;32921;53.256;8.198;2024-03-17T06:47:47;310.20;;;290.35;;
47161;SDS011;32921;53.256;8.198;2024-03-17T06:50:13;303.25;;;283.63;;
47161;SDS011;32921;53.256;8.198;2024-03-17T06:52:39;289.38;;;270.50;;
47161;SDS011;32921;53.256;8.198;2024-03-17T06:55:05;307.92;;;285.23;;
47161;SDS011;32921;53.256;8.198;2024-03-17T06:57:32;284.73;;;266.48;;
47161;SDS011;32921;53.256;8.198;2024-03-17T06:59:59;323.42;;;302.55;;
47161;SDS011;32921;53.256;8.198;2024-03-17T07:02:30;295.17;;;275.92;;
47161;SDS011;32921;53.256;8.198;2024-03-17T07:04:57;318.50;;;297.10;;
47161;SDS011;32921;53.256;8.198;2024-03-17T07:07:22;383.67;;;357.45;;
47161;SDS011;32921;53.256;8.198;2024-03-17T07:09:48;358.10;;;333.30;;
47161;SDS011;32921;53.256;8.198;2024-03-17T07:12:14;347.33;;;323.55;;
47161;SDS011;32921;53.256;8.198;2024-03-17T07:14:39;389.90;;;362.83;;
47161;SDS011;32921;53.256;8.198;2024-03-17T07:17:05;392.27;;;363.73;;
47161;SDS011;32921;53.256;8.198;2024-03-17T07:19:32;391.98;;;364.15;;
47161;SDS011;32921;53.256;8.198;2024-03-17T07:21:57;405.20;;;375.70;;
47161;SDS011;32921;53.256;8.198;2024-03-17T07:24:23;387.80;;;359.88;;
47161;SDS011;32921;53.256;8.198;2024-03-17T07:26:49;354.73;;;329.13;;
47161;SDS011;32921;53.256;8.198;2024-03-17T07:29:15;310.52;;;287.77;;
47161;SDS011;32921;53.256;8.198;2024-03-17T07:31:41;243.27;;;225.38;;
47161;SDS011;32921;53.256;8.198;2024-03-17T07:34:07;230.57;;;212.43;;
47161;SDS011;32921;53.256;8.198;2024-03-17T07:36:33;320.60;;;296.38;;
47161;SDS011;32921;53.256;8.198;2024-03-17T07:38:58;439.27;;;406.10;;
47161;SDS011;32921;53.256;8.198;2024-03-17T07:41:24;468.95;;;433.90;;
47161;SDS011;32921;53.256;8.198;2024-03-17T07:43:50;477.88;;;442.50;;
47161;SDS011;32921;53.256;8.198;2024-03-17T07:46:15;482.08;;;446.75;;
47161;SDS011;32921;53.256;8.198;2024-03-17T07:48:41;448.63;;;417.20;;
47161;SDS011;32921;53.256;8.198;2024-03-17T07:51:09;401.27;;;373.65;;
47161;SDS011;32921;53.256;8.198;2024-03-17T07:53:36;342.42;;;319.00;;
47161;SDS011;32921;53.256;8.198;2024-03-17T07:56:03;300.08;;;280.33;;
47161;SDS011;32921;53.256;8.198;2024-03-17T07:58:30;252.52;;;235.45;;
47161;SDS011;32921;53.256;8.198;2024-03-17T08:01:00;157.15;;;146.40;;
47161;SDS011;32921;53.256;8.198;2024-03-17T08:03:28;102.25;;;95.75;;
47161;SDS011;32921;53.256;8.198;2024-03-17T08:05:55;97.85;;;91.55;;
47161;SDS011;32921;53.256;8.198;2024-03-17T08:08:20;93.80;;;87.25;;
47161;SDS011;32921;53.256;8.198;2024-03-17T08:10:46;138.60;;;128.35;;
47161;SDS011;32921;53.256;8.198;2024-03-17T08:13:15;202.95;;;187.82;;
47161;SDS011;32921;53.256;8.198;2024-03-17T08:15:44;282.17;;;260.23;;
47161;SDS011;32921;53.256;8.198;2024-03-17T08:18:11;542.65;;;498.98;;
47161;SDS011;32921;53.256;8.198;2024-03-17T08:20:40;466.38;;;430.10;;
47161;SDS011;32921;53.256;8.198;2024-03-17T08:23:11;401.00;;;369.40;;
47161;SDS011;32921;53.256;8.198;2024-03-17T08:25:37;393.70;;;363.85;;
47161;SDS011;32921;53.256;8.198;2024-03-17T08:28:03;333.95;;;311.05;;
47161;SDS011;32921;53.256;8.198;2024-03-17T08:30:29;335.27;;;313.00;;
47161;SDS011;32921;53.256;8.198;2024-03-17T08:32:55;277.65;;;260.27;;
47161;SDS011;32921;53.256;8.198;2024-03-17T08:35:21;239.65;;;225.02;;
47161;SDS011;32921;53.256;8.198;2024-03-17T08:37:47;230.35;;;216.38;;
47161;SDS011;32921;53.256;8.198;2024-03-17T08:40:13;247.48;;;232.60;;
47161;SDS011;32921;53.256;8.198;2024-03-17T08:42:39;368.77;;;344.30;;
47161;SDS011;32921;53.256;8.198;2024-03-17T08:45:05;508.95;;;472.70;;
47161;SDS011;32921;53.256;8.198;2024-03-17T08:47:31;550.00;;;509.73;;
47161;SDS011;32921;53.256;8.198;2024-03-17T08:49:57;552.08;;;511.17;;
47161;SDS011;32921;53.256;8.198;2024-03-17T08:52:23;658.80;;;609.08;;
47161;SDS011;32921;53.256;8.198;2024-03-17T08:54:49;649.35;;;598.60;;
47161;SDS011;32921;53.256;8.198;2024-03-17T08:57:18;656.28;;;605.17;;
47161;SDS011;32921;53.256;8.198;2024-03-17T08:59:46;661.72;;;610.65;;
47161;SDS011;32921;53.256;8.198;2024-03-17T09:02:13;633.90;;;585.20;;
47161;SDS011;32921;53.256;8.198;2024-03-17T09:04:40;624.50;;;576.00;;
47161;SDS011;32921;53.256;8.198;2024-03-17T09:07:06;623.58;;;575.70;;
47161;SDS011;32921;53.256;8.198;2024-03-17T09:09:32;604.30;;;557.10;;
47161;SDS011;32921;53.256;8.198;2024-03-17T09:11:58;647.95;;;598.28;;
47161;SDS011;32921;53.256;8.198;2024-03-17T09:14:23;657.90;;;605.13;;
47161;SDS011;32921;53.256;8.198;2024-03-17T09:16:49;609.75;;;561.90;;
47161;SDS011;32921;53.256;8.198;2024-03-17T09:19:15;618.20;;;570.28;;
47161;SDS011;32921;53.256;8.198;2024-03-17T09:21:40;619.22;;;571.28;;
47161;SDS011;32921;53.256;8.198;2024-03-17T09:24:06;595.97;;;549.20;;
47161;SDS011;32921;53.256;8.198;2024-03-17T09:26:36;590.22;;;544.63;;
47161;SDS011;32921;53.256;8.198;2024-03-17T09:29:04;618.35;;;571.25;;
47161;SDS011;32921;53.256;8.198;2024-03-17T09:31:30;652.78;;;602.22;;
47161;SDS011;32921;53.256;8.198;2024-03-17T09:33:58;600.80;;;554.30;;
47161;SDS011;32921;53.256;8.198;2024-03-17T09:36:24;588.30;;;542.35;;
47161;SDS011;32921;53.256;8.198;2024-03-17T09:38:50;601.80;;;555.05;;
47161;SDS011;32921;53.256;8.198;2024-03-17T09:41:25;624.20;;;577.10;;
47161;SDS011;32921;53.256;8.198;2024-03-17T09:43:54;591.70;;;546.40;;
47161;SDS011;32921;53.256;8.198;2024-03-17T09:46:24;584.83;;;539.83;;
47161;SDS011;32921;53.256;8.198;2024-03-17T09:48:52;574.70;;;530.88;;
47161;SDS011;32921;53.256;8.198;2024-03-17T09:51:20;572.33;;;528.90;;
47161;SDS011;32921;53.256;8.198;2024-03-17T09:53:47;542.72;;;500.60;;
47161;SDS011;32921;53.256;8.198;2024-03-17T09:56:15;531.42;;;490.33;;
47161;SDS011;32921;53.256;8.198;2024-03-17T09:58:43;548.40;;;503.05;;
47161;SDS011;32921;53.256;8.198;2024-03-17T10:01:18;473.25;;;437.33;;
47161;SDS011;32921;53.256;8.198;2024-03-17T10:06:21;457.90;;;424.45;;
47161;SDS011;32921;53.256;8.198;2024-03-17T10:08:52;401.20;;;371.73;;
47161;SDS011;32921;53.256;8.198;2024-03-17T10:11:20;370.50;;;344.17;;
47161;SDS011;32921;53.256;8.198;2024-03-17T10:13:53;366.88;;;341.20;;
47161;SDS011;32921;53.256;8.198;2024-03-17T10:16:28;359.98;;;334.63;;
47161;SDS011;32921;53.256;8.198;2024-03-17T10:19:14;382.48;;;355.23;;
47161;SDS011;32921;53.256;8.198;2024-03-17T10:21:44;382.63;;;355.40;;
47161;SDS011;32921;53.256;8.198;2024-03-17T10:24:14;401.92;;;372.50;;
47161;SDS011;32921;53.256;8.198;2024-03-17T10:26:48;411.05;;;380.40;;
47161;SDS011;32921;53.256;8.198;2024-03-17T10:29:19;502.42;;;461.55;;
47161;SDS011;32921;53.256;8.198;2024-03-17T10:31:52;587.58;;;538.05;;
47161;SDS011;32921;53.256;8.198;2024-03-17T10:34:19;597.08;;;544.17;;
47161;SDS011;32921;53.256;8.198;2024-03-17T10:36:45;645.10;;;587.90;;
47161;SDS011;32921;53.256;8.198;2024-03-17T10:39:24;645.95;;;588.80;;
47161;SDS011;32921;53.256;8.198;2024-03-17T10:41:56;715.35;;;649.80;;
47161;SDS011;32921;53.256;8.198;2024-03-17T10:44:26;696.15;;;630.90;;
47161;SDS011;32921;53.256;8.198;2024-03-17T10:46:54;708.72;;;642.85;;
47161;SDS011;32921;53.256;8.198;2024-03-17T10:49:23;699.08;;;634.00;;
47161;SDS011;32921;53.256;8.198;2024-03-17T10:51:57;703.90;;;637.33;;
47161;SDS011;32921;53.256;8.198;2024-03-17T10:56:57;789.38;;;714.47;;
47161;SDS011;32921;53.256;8.198;2024-03-17T10:59:41;776.08;;;702.97;;
47161;SDS011;32921;53.256;8.198;2024-03-17T11:02:28;732.92;;;664.38;;
47161;SDS011;32921;53.256;8.198;2024-03-17T11:04:58;744.67;;;676.60;;
47161;SDS011;32921;53.256;8.198;2024-03-17T11:07:25;697.28;;;632.25;;
47161;SDS011;32921;53.256;8.198;2024-03-17T11:09:52;719.42;;;653.08;;
47161;SDS011;32921;53.256;8.198;2024-03-17T11:20:25;568.42;;;520.78;;
47161;SDS011;32921;53.256;8.198;2024-03-17T11:22:54;624.03;;;570.88;;
47161;SDS011;32921;53.256;8.198;2024-03-17T11:28:05;655.75;;;600.28;;
47161;SDS011;32921;53.256;8.198;2024-03-17T11:38:53;680.50;;;618.00;;
47161;SDS011;32921;53.256;8.198;2024-03-17T11:41:36;739.30;;;670.20;;
47161;SDS011;32921;53.256;8.198;2024-03-17T11:46:54;742.22;;;673.38;;
47161;SDS011;32921;53.256;8.198;2024-03-17T11:49:23;741.70;;;672.08;;
47161;SDS011;32921;53.256;8.198;2024-03-17T11:51:54;733.63;;;666.50;;
47161;SDS011;32921;53.256;8.198;2024-03-17T11:54:22;732.33;;;664.78;;
47161;SDS011;32921;53.256;8.198;2024-03-17T11:56:50;728.65;;;662.72;;
47161;SDS011;32921;53.256;8.198;2024-03-17T11:59:17;750.08;;;681.95;;
47161;SDS011;32921;53.256;8.198;2024-03-17T12:01:46;712.75;;;647.45;;
47161;SDS011;32921;53.256;8.198;2024-03-17T12:04:14;725.22;;;659.45;;
47161;SDS011;32921;53.256;8.198;2024-03-17T12:06:47;683.10;;;621.13;;
47161;SDS011;32921;53.256;8.198;2024-03-17T12:09:21;736.00;;;667.90;;
47161;SDS011;32921;53.256;8.198;2024-03-17T12:14:30;726.00;;;657.92;;
47161;SDS011;32921;53.256;8.198;2024-03-17T12:17:00;719.20;;;652.03;;
47161;SDS011;32921;53.256;8.198;2024-03-17T12:19:30;702.05;;;637.28;;
47161;SDS011;32921;53.256;8.198;2024-03-17T12:21:58;695.95;;;632.33;;
47161;SDS011;32921;53.256;8.198;2024-03-17T12:24:34;710.47;;;644.45;;
47161;SDS011;32921;53.256;8.198;2024-03-17T12:27:04;697.22;;;632.45;;
47161;SDS011;32921;53.256;8.198;2024-03-17T12:29:34;738.85;;;668.88;;
47161;SDS011;32921;53.256;8.198;2024-03-17T12:32:03;746.83;;;675.63;;
47161;SDS011;32921;53.256;8.198;2024-03-17T12:34:32;728.58;;;659.55;;
47161;SDS011;32921;53.256;8.198;2024-03-17T12:37:01;724.58;;;656.20;;
47161;SDS011;32921;53.256;8.198;2024-03-17T12:39:29;728.65;;;659.28;;
47161;SDS011;32921;53.256;8.198;2024-03-17T12:42:06;732.75;;;663.30;;
47161;SDS011;32921;53.256;8.198;2024-03-17T12:44:35;710.15;;;643.45;;
47161;SDS011;32921;53.256;8.198;2024-03-17T12:47:15;739.10;;;670.50;;
47161;SDS011;32921;53.256;8.198;2024-03-17T12:49:45;727.08;;;659.97;;
47161;SDS011;32921;53.256;8.198;2024-03-17T12:54:59;737.20;;;670.53;;
47161;SDS011;32921;53.256;8.198;2024-03-17T12:58:11;769.92;;;697.30;;
47161;SDS011;32921;53.256;8.198;2024-03-17T13:01:02;782.30;;;707.97;;
47161;SDS011;32921;53.256;8.198;2024-03-17T13:03:30;777.25;;;702.15;;
47161;SDS011;32921;53.256;8.198;2024-03-17T13:05:58;773.20;;;698.50;;
47161;SDS011;32921;53.256;8.198;2024-03-17T13:08:25;807.85;;;729.00;;
47161;SDS011;32921;53.256;8.198;2024-03-17T13:10:51;786.45;;;710.67;;
47161;SDS011;32921;53.256;8.198;2024-03-17T13:13:16;801.72;;;724.90;;
47161;SDS011;32921;53.256;8.198;2024-03-17T13:15:42;803.40;;;724.72;;
47161;SDS011;32921;53.256;8.198;2024-03-17T13:18:08;788.42;;;712.60;;
47161;SDS011;32921;53.256;8.198;2024-03-17T13:20:40;835.50;;;753.17;;
47161;SDS011;32921;53.256;8.198;2024-03-17T13:23:06;803.80;;;725.67;;
47161;SDS011;32921;53.256;8.198;2024-03-17T13:25:33;812.58;;;733.65;;
47161;SDS011;32921;53.256;8.198;2024-03-17T13:27:59;783.78;;;707.90;;
47161;SDS011;32921;53.256;8.198;2024-03-17T13:30:25;806.95;;;728.22;;
47161;SDS011;32921;53.256;8.198;2024-03-17T13:32:53;785.42;;;709.35;;
47161;SDS011;32921;53.256;8.198;2024-03-17T13:35:24;791.38;;;714.35;;
47161;SDS011;32921;53.256;8.198;2024-03-17T13:37:51;814.53;;;734.40;;
47161;SDS011;32921;53.256;8.198;2024-03-17T13:40:19;794.95;;;717.40;;
47161;SDS011;32921;53.256;8.198;2024-03-17T13:42:46;794.10;;;716.10;;
47161;SDS011;32921;53.256;8.198;2024-03-17T13:45:12;773.88;;;698.17;;
47161;SDS011;32921;53.256;8.198;2024-03-17T13:47:39;780.05;;;703.72;;
47161;SDS011;32921;53.256;8.198;2024-03-17T13:50:05;801.47;;;722.63;;
47161;SDS011;32921;53.256;8.198;2024-03-17T13:52:36;724.20;;;653.22;;
47161;SDS011;32921;53.256;8.198;2024-03-17T13:55:03;774.00;;;699.50;;
47161;SDS011;32921;53.256;8.198;2024-03-17T13:57:31;789.60;;;714.58;;
47161;SDS011;32921;53.256;8.198;2024-03-17T13:59:58;799.83;;;722.25;;
47161;SDS011;32921;53.256;8.198;2024-03-17T14:02:23;752.60;;;681.13;;
47161;SDS011;32921;53.256;8.198;2024-03-17T14:04:49;727.35;;;657.78;;
47161;SDS011;32921;53.256;8.198;2024-03-17T14:07:14;763.90;;;690.30;;
47161;SDS011;32921;53.256;8.198;2024-03-17T14:09:40;753.53;;;680.13;;
47161;SDS011;32921;53.256;8.198;2024-03-17T14:12:07;762.92;;;689.78;;
47161;SDS011;32921;53.256;8.198;2024-03-17T14:14:33;751.03;;;679.30;;
47161;SDS011;32921;53.256;8.198;2024-03-17T14:16:59;764.40;;;689.22;;
47161;SDS011;32921;53.256;8.198;2024-03-17T14:19:25;794.58;;;717.80;;
47161;SDS011;32921;53.256;8.198;2024-03-17T14:21:50;797.13;;;718.42;;
47161;SDS011;32921;53.256;8.198;2024-03-17T14:24:16;838.65;;;755.03;;
47161;SDS011;32921;53.256;8.198;2024-03-17T14:26:42;830.95;;;748.03;;
47161;SDS011;32921;53.256;8.198;2024-03-17T14:29:07;815.67;;;735.10;;
47161;SDS011;32921;53.256;8.198;2024-03-17T14:31:33;812.13;;;731.75;;
47161;SDS011;32921;53.256;8.198;2024-03-17T14:34:05;794.88;;;717.38;;